LFRZ/SNR METAR and TAF weather

Enter ICAO airport designator
Station Type Date Time Source
LFRZ METAR 2020/06/03 16:00 UTC NOAA

LFRZ 031600Z AUTO 28015KT 250V310 CAVOK 23/11 Q1003 TEMPO 4500 -SHRA BKN040TCU


Station Type Date Time Source
LFRZ Decoded METAR 2020/06/03 16:00 UTC NOAA

St-Nazaire, France (LFRZ) 47-19N 002-10W 4M
Jun 03, 2020 - 12:00 PM EDT / 2020.06.03 1600 UTC
Wind: from the W (280 degrees) at 17 MPH (15 KT) (direction variable):0
Visibility: greater than 7 mile(s):0
Weather: Towering cumulus clouds observed
Temperature: 73 F (23 C)
Dew Point: 51 F (11 C)
Relative Humidity: 46%
Pressure (altimeter): 29.62 in. Hg (1003 hPa)
ob: LFRZ 031600Z AUTO 28015KT 250V310 CAVOK 23/11 Q1003 TEMPO 4500 -SHRA BKN040TCU
cycle: 16

Station Type Date Time Source
LFRZ TAF 2020/06/03 12:21 UTC NOAA

TAF LFRZ 031100Z 0312/0412 31010KT CAVOK PROB40
TEMPO 0315/0411 4500 -SHRA BKN040TCU PROB30
TEMPO 0318/0324 VRB15G30KT TSRA BKN030CB
TEMPO 0410/0412 01015G25KT

Example: see airport list